createdAt,value
2019-06-26T00:01:52.064Z,18.13
2019-06-26T00:04:20.735Z,18.09
2019-06-26T00:06:49.456Z,18.05
2019-06-26T00:09:17.858Z,18.03
2019-06-26T00:11:46.254Z,18.01
2019-06-26T00:14:14.664Z,17.93
2019-06-26T00:16:43.460Z,17.81
2019-06-26T00:19:12.151Z,17.81
2019-06-26T00:21:40.536Z,17.77
2019-06-26T00:24:10.762Z,17.68
2019-06-26T00:26:39.143Z,17.66
2019-06-26T00:29:07.558Z,17.61
2019-06-26T00:31:35.950Z,17.58
2019-06-26T00:34:04.539Z,17.53
2019-06-26T00:36:32.925Z,17.45
2019-06-26T00:39:01.356Z,17.47
2019-06-26T00:41:29.757Z,17.44
2019-06-26T00:43:58.512Z,17.43
2019-06-26T00:46:26.915Z,17.43
2019-06-26T00:48:55.670Z,17.33
2019-06-26T00:51:24.460Z,17.33
2019-06-26T00:53:53.147Z,17.30
2019-06-26T00:56:21.543Z,17.26
2019-06-26T00:58:49.958Z,17.21
2019-06-26T01:01:18.362Z,17.18
2019-06-26T01:03:48.646Z,17.17
2019-06-26T01:06:34.904Z,17.14
2019-06-26T01:09:03.930Z,17.12
2019-06-26T01:11:32.309Z,17.12
2019-06-26T01:14:00.728Z,17.04
2019-06-26T01:16:29.484Z,17.00
2019-06-26T01:18:58.238Z,16.98
2019-06-26T01:21:26.737Z,16.89
2019-06-26T01:23:55.151Z,16.92
2019-06-26T01:26:23.550Z,16.74
2019-06-26T01:28:51.954Z,16.74
2019-06-26T01:31:20.447Z,16.69
2019-06-26T01:33:48.891Z,16.69
2019-06-26T01:36:17.608Z,16.62
2019-06-26T01:38:46.057Z,16.62
2019-06-26T01:41:14.799Z,16.58
2019-06-26T01:43:43.294Z,16.46
2019-06-26T01:46:11.945Z,16.48
2019-06-26T01:48:40.351Z,16.43
2019-06-26T01:51:08.749Z,16.38
2019-06-26T01:53:37.189Z,16.44
2019-06-26T01:56:05.883Z,16.44
2019-06-26T01:58:34.566Z,16.43
2019-06-26T02:01:03.010Z,16.41
2019-06-26T02:03:31.727Z,16.40
2019-06-26T02:06:00.418Z,16.39
2019-06-26T02:08:28.914Z,16.36
2019-06-26T02:10:57.343Z,16.33
2019-06-26T02:13:26.089Z,16.30
2019-06-26T02:15:54.499Z,16.26
2019-06-26T02:18:42.401Z,16.25
2019-06-26T02:21:10.824Z,16.22
2019-06-26T02:23:39.326Z,16.20
2019-06-26T02:26:07.732Z,16.17
2019-06-26T02:28:36.122Z,16.13
2019-06-26T02:31:04.519Z,16.11
2019-06-26T02:33:32.941Z,16.06
2019-06-26T02:36:01.436Z,16.04
2019-06-26T02:38:29.889Z,16.00
2019-06-26T02:40:58.615Z,15.98
2019-06-26T02:43:27.345Z,15.98
2019-06-26T02:45:55.760Z,15.94
2019-06-26T02:48:24.150Z,15.92
2019-06-26T02:50:52.630Z,15.93
2019-06-26T02:53:21.037Z,15.89
2019-06-26T02:55:49.433Z,15.86
2019-06-26T02:58:17.842Z,15.82
2019-06-26T03:00:46.263Z,15.78
2019-06-26T03:03:15.073Z,15.76
2019-06-26T03:05:43.750Z,15.71
2019-06-26T03:08:12.179Z,15.69
2019-06-26T03:10:40.934Z,15.61
2019-06-26T03:13:09.402Z,15.59
2019-06-26T03:15:37.818Z,15.55
2019-06-26T03:18:06.317Z,15.52
2019-06-26T03:20:38.123Z,15.49
2019-06-26T03:23:06.516Z,15.49
2019-06-26T03:25:34.949Z,15.49
2019-06-26T03:28:03.429Z,15.45
2019-06-26T03:30:31.859Z,15.44
2019-06-26T03:33:01.344Z,15.44
2019-06-26T03:35:29.747Z,15.42
2019-06-26T03:37:58.144Z,15.45
2019-06-26T03:40:26.552Z,15.43
2019-06-26T03:42:54.955Z,15.43
2019-06-26T03:45:26.086Z,15.45
2019-06-26T03:47:54.283Z,15.47
2019-06-26T03:50:22.968Z,15.46
2019-06-26T03:52:51.720Z,15.47
2019-06-26T03:55:20.201Z,15.49
2019-06-26T03:57:48.925Z,15.53
2019-06-26T04:00:38.087Z,15.55
2019-06-26T04:03:06.795Z,15.58
2019-06-26T04:05:35.686Z,15.62
2019-06-26T04:08:04.658Z,15.65
2019-06-26T04:10:33.513Z,15.72
2019-06-26T04:13:02.019Z,15.77
2019-06-26T04:15:41.296Z,15.81
2019-06-26T04:18:00.954Z,15.86
2019-06-26T04:20:29.418Z,15.89
2019-06-26T04:22:58.223Z,15.96
2019-06-26T04:25:27.154Z,16.01
2019-06-26T04:27:55.904Z,16.08
2019-06-26T04:30:25.140Z,16.13
2019-06-26T04:32:53.912Z,16.20
2019-06-26T04:35:22.699Z,16.30
2019-06-26T04:37:51.146Z,16.38
2019-06-26T04:40:20.547Z,16.45
2019-06-26T04:42:49.089Z,16.54
2019-06-26T04:45:18.412Z,16.59
2019-06-26T04:47:47.012Z,16.67
2019-06-26T04:50:16.158Z,16.73
2019-06-26T04:52:44.851Z,16.82
2019-06-26T04:55:13.858Z,16.89
2019-06-26T04:57:42.598Z,16.91
2019-06-26T05:00:13.331Z,17.06
2019-06-26T05:02:42.130Z,17.14
2019-06-26T05:05:11.210Z,17.19
2019-06-26T05:07:39.703Z,17.32
2019-06-26T05:10:10.308Z,17.40
2019-06-26T05:12:39.015Z,17.48
2019-06-26T05:15:08.946Z,17.55
2019-06-26T05:17:37.423Z,17.63
2019-06-26T05:20:07.958Z,17.71
2019-06-26T05:22:36.723Z,17.78
2019-06-26T05:25:08.923Z,17.85
2019-06-26T05:27:37.592Z,17.96
2019-06-26T05:30:08.115Z,18.04
2019-06-26T05:32:37.315Z,18.16
2019-06-26T05:35:07.419Z,18.19
2019-06-26T05:37:35.826Z,18.36
2019-06-26T05:40:07.272Z,18.47
2019-06-26T05:42:35.682Z,18.60
2019-06-26T05:45:05.396Z,18.67
2019-06-26T05:47:34.182Z,18.76
2019-06-26T05:50:02.832Z,18.84
2019-06-26T05:52:31.249Z,18.93
2019-06-26T05:54:59.896Z,19.02
2019-06-26T05:57:28.305Z,19.09
2019-06-26T05:59:56.726Z,19.19
2019-06-26T06:02:25.131Z,19.25
2019-06-26T06:04:54.588Z,19.33
2019-06-26T06:07:23.131Z,19.43
2019-06-26T06:09:51.705Z,19.52
2019-06-26T06:12:20.114Z,19.61
2019-06-26T06:14:48.528Z,19.68
2019-06-26T06:17:17.256Z,19.75
2019-06-26T06:19:45.887Z,19.84
2019-06-26T06:22:14.750Z,19.96
2019-06-26T06:24:43.147Z,20.09
2019-06-26T06:27:11.579Z,20.21
2019-06-26T06:29:40.224Z,20.35
2019-06-26T06:32:08.731Z,20.42
2019-06-26T06:34:37.200Z,20.60
2019-06-26T06:37:05.599Z,20.70
2019-06-26T06:39:34.009Z,20.83
2019-06-26T06:42:02.684Z,20.92
2019-06-26T06:44:31.377Z,20.94
2019-06-26T06:47:04.242Z,21.00
2019-06-26T06:49:30.194Z,21.10
2019-06-26T06:51:58.591Z,21.21
2019-06-26T06:54:26.995Z,21.30
2019-06-26T06:56:55.395Z,21.36
2019-06-26T06:59:23.791Z,21.47
2019-06-26T07:01:52.189Z,21.58
2019-06-26T07:04:20.643Z,21.65
2019-06-26T07:06:49.032Z,21.72
2019-06-26T07:09:17.437Z,21.78
2019-06-26T07:11:46.102Z,21.79
2019-06-26T07:14:14.501Z,21.84
2019-06-26T07:16:42.914Z,21.91
2019-06-26T07:19:11.305Z,22.02
2019-06-26T07:21:39.723Z,22.16
2019-06-26T07:24:08.423Z,22.25
2019-06-26T07:26:36.822Z,22.35
2019-06-26T07:29:05.223Z,22.49
2019-06-26T07:31:33.708Z,22.60
2019-06-26T07:34:02.120Z,22.69
2019-06-26T07:36:30.500Z,22.77
2019-06-26T07:38:58.929Z,22.86
2019-06-26T07:41:27.592Z,22.94
2019-06-26T07:43:56.009Z,23.17
2019-06-26T07:46:24.383Z,23.36
2019-06-26T07:48:52.782Z,23.48
2019-06-26T07:51:21.502Z,23.67
2019-06-26T07:53:49.913Z,23.79
2019-06-26T07:56:18.575Z,24.00
2019-06-26T07:58:47.746Z,24.14
2019-06-26T08:01:16.462Z,24.30
2019-06-26T08:03:44.847Z,24.42
2019-06-26T08:06:13.527Z,24.61
2019-06-26T08:08:41.918Z,24.80
2019-06-26T08:11:10.327Z,24.86
2019-06-26T08:13:38.965Z,24.95
2019-06-26T08:16:07.375Z,25.01
2019-06-26T08:18:35.767Z,25.05
2019-06-26T08:21:12.100Z,25.11
2019-06-26T08:23:34.639Z,25.17
2019-06-26T08:26:03.102Z,25.35
2019-06-26T08:28:31.496Z,25.45
2019-06-26T08:31:00.058Z,25.53
2019-06-26T08:33:28.468Z,25.62
2019-06-26T08:35:56.878Z,25.70
2019-06-26T08:38:25.550Z,25.76
2019-06-26T08:40:53.954Z,25.87
2019-06-26T08:43:22.695Z,25.98
2019-06-26T08:45:51.390Z,26.11
2019-06-26T08:48:38.355Z,26.24
2019-06-26T08:50:50.708Z,26.42
2019-06-26T08:53:19.385Z,26.59
2019-06-26T08:55:47.778Z,26.72
2019-06-26T08:58:16.202Z,26.79
2019-06-26T09:00:45.145Z,26.84
2019-06-26T09:03:13.869Z,26.93
2019-06-26T09:05:47.881Z,27.00
2019-06-26T09:08:12.704Z,27.09
2019-06-26T09:10:44.703Z,27.18
2019-06-26T09:13:11.280Z,27.31
2019-06-26T09:15:40.062Z,27.44
2019-06-26T09:18:08.710Z,27.57
2019-06-26T09:20:39.817Z,27.69
2019-06-26T09:23:09.161Z,27.76
2019-06-26T09:25:37.930Z,27.94
2019-06-26T09:28:06.574Z,28.12
2019-06-26T09:30:34.970Z,28.27
2019-06-26T09:33:03.539Z,28.39
2019-06-26T09:35:31.927Z,28.53
2019-06-26T09:38:00.401Z,28.76
2019-06-26T09:40:31.731Z,28.94
2019-06-26T09:42:58.919Z,29.09
2019-06-26T09:45:27.767Z,29.22
2019-06-26T09:47:56.185Z,29.34
2019-06-26T09:50:24.577Z,29.50
2019-06-26T09:52:52.984Z,29.70
2019-06-26T09:55:21.712Z,29.92
2019-06-26T09:57:50.103Z,30.10
2019-06-26T10:00:21.440Z,30.28
2019-06-26T10:02:50.793Z,30.44
2019-06-26T10:05:19.535Z,30.67
2019-06-26T10:07:47.933Z,30.82
2019-06-26T10:10:16.670Z,31.02
2019-06-26T10:12:45.126Z,31.03
2019-06-26T10:15:13.994Z,31.29
2019-06-26T10:17:42.354Z,31.53
2019-06-26T10:20:11.210Z,31.73
2019-06-26T10:22:40.008Z,31.87
2019-06-26T10:25:11.448Z,31.92
2019-06-26T10:27:39.496Z,32.06
2019-06-26T10:30:08.461Z,32.17
2019-06-26T10:32:37.237Z,32.25
2019-06-26T10:35:07.239Z,32.40
2019-06-26T10:37:35.913Z,32.51
2019-06-26T10:40:04.955Z,32.61
2019-06-26T10:42:33.358Z,32.66
2019-06-26T10:45:02.097Z,32.31
2019-06-26T10:47:30.471Z,32.73
2019-06-26T10:49:59.244Z,32.94
2019-06-26T10:52:27.631Z,32.88
2019-06-26T10:54:56.027Z,33.09
2019-06-26T10:57:24.673Z,32.83
2019-06-26T10:59:55.664Z,32.87
2019-06-26T11:02:23.482Z,32.91
2019-06-26T11:04:52.171Z,33.02
2019-06-26T11:07:20.566Z,33.24
2019-06-26T11:09:49.247Z,33.22
2019-06-26T11:12:17.637Z,33.15
2019-06-26T11:14:46.043Z,33.00
2019-06-26T11:17:14.433Z,33.04
2019-06-26T11:19:44.584Z,33.20
2019-06-26T11:22:13.140Z,33.28
2019-06-26T11:24:41.885Z,33.25
2019-06-26T11:27:10.267Z,33.26
2019-06-26T11:29:38.929Z,33.20
2019-06-26T11:32:09.615Z,33.07
2019-06-26T11:34:37.460Z,32.97
2019-06-26T11:37:05.867Z,33.07
2019-06-26T11:39:34.256Z,33.21
2019-06-26T11:42:02.674Z,33.37
2019-06-26T11:44:31.143Z,33.36
2019-06-26T11:46:59.544Z,33.64
2019-06-26T11:49:27.952Z,33.72
2019-06-26T11:51:56.339Z,33.75
2019-06-26T11:54:24.730Z,33.66
2019-06-26T11:56:53.393Z,33.96
2019-06-26T11:59:21.781Z,34.08
2019-06-26T12:01:50.547Z,34.07
2019-06-26T12:04:18.943Z,33.97
2019-06-26T12:06:47.599Z,33.99
2019-06-26T12:09:15.994Z,34.06
2019-06-26T12:11:44.406Z,34.16
2019-06-26T12:14:12.802Z,34.14
2019-06-26T12:16:41.204Z,34.11
2019-06-26T12:19:09.931Z,34.15
2019-06-26T12:21:38.590Z,34.43
2019-06-26T12:24:06.985Z,34.31
2019-06-26T12:26:35.663Z,34.39
2019-06-26T12:29:04.160Z,34.58
2019-06-26T12:31:32.640Z,34.68
2019-06-26T12:34:01.303Z,34.75
2019-06-26T12:36:30.007Z,34.90
2019-06-26T12:38:58.388Z,34.77
2019-06-26T12:41:27.161Z,34.85
2019-06-26T12:43:55.553Z,34.67
2019-06-26T12:46:24.222Z,34.78
2019-06-26T12:48:52.697Z,35.04
2019-06-26T12:51:21.173Z,35.27
2019-06-26T12:53:49.874Z,35.22
2019-06-26T12:56:18.280Z,35.42
2019-06-26T12:58:46.728Z,35.54
2019-06-26T13:01:15.431Z,35.45
2019-06-26T13:03:43.828Z,35.65
2019-06-26T13:06:12.248Z,35.56
2019-06-26T13:08:40.632Z,35.81
2019-06-26T13:11:09.033Z,35.71
2019-06-26T13:13:37.431Z,35.57
2019-06-26T13:16:05.836Z,35.45
2019-06-26T13:18:34.696Z,35.42
2019-06-26T13:21:05.252Z,35.61
2019-06-26T13:23:33.603Z,35.39
2019-06-26T13:26:01.998Z,35.39
2019-06-26T13:28:30.397Z,35.77
2019-06-26T13:30:58.891Z,35.76
2019-06-26T13:33:27.330Z,35.57
2019-06-26T13:35:55.758Z,35.70
2019-06-26T13:38:27.078Z,35.83
2019-06-26T13:40:54.640Z,35.87
2019-06-26T13:43:23.035Z,36.01
2019-06-26T13:45:51.797Z,36.01
2019-06-26T13:48:20.316Z,36.01
2019-06-26T13:50:48.707Z,36.30
2019-06-26T13:53:17.122Z,36.42
2019-06-26T13:55:45.517Z,36.33
2019-06-26T13:58:13.918Z,36.32
2019-06-26T14:00:42.317Z,36.19
2019-06-26T14:03:10.822Z,36.03
2019-06-26T14:05:39.551Z,36.04
2019-06-26T14:08:07.989Z,36.17
2019-06-26T14:10:36.396Z,36.45
2019-06-26T14:13:04.900Z,36.17
2019-06-26T14:15:33.413Z,36.31
2019-06-26T14:18:01.846Z,36.25
2019-06-26T14:20:30.262Z,36.33
2019-06-26T14:22:58.704Z,36.51
2019-06-26T14:25:27.132Z,36.39
2019-06-26T14:27:55.870Z,36.43
2019-06-26T14:30:27.833Z,36.28
2019-06-26T14:32:54.870Z,36.43
2019-06-26T14:35:23.563Z,36.57
2019-06-26T14:37:52.016Z,36.42
2019-06-26T14:40:21.962Z,36.46
2019-06-26T14:42:50.393Z,36.76
2019-06-26T14:45:19.263Z,36.88
2019-06-26T14:47:48.042Z,36.61
2019-06-26T14:50:17.598Z,36.67
2019-06-26T14:52:46.179Z,36.80
2019-06-26T14:55:14.966Z,36.77
2019-06-26T14:57:43.349Z,36.77
2019-06-26T15:00:12.720Z,36.82
2019-06-26T15:02:41.161Z,36.94
2019-06-26T15:05:10.535Z,36.77
2019-06-26T15:07:39.028Z,36.75
2019-06-26T15:10:08.883Z,36.86
2019-06-26T15:12:37.860Z,36.87
2019-06-26T15:15:08.591Z,36.97
2019-06-26T15:17:37.025Z,36.89
2019-06-26T15:20:08.405Z,37.01
2019-06-26T15:22:36.799Z,37.12
2019-06-26T15:25:07.259Z,37.08
2019-06-26T15:27:35.740Z,36.92
2019-06-26T15:30:09.123Z,36.90
2019-06-26T15:32:37.549Z,36.90
2019-06-26T15:35:07.417Z,37.14
2019-06-26T15:37:36.145Z,37.12
2019-06-26T15:40:06.279Z,37.25
2019-06-26T15:42:34.996Z,36.93
2019-06-26T15:45:03.614Z,36.94
2019-06-26T15:47:32.276Z,36.88
2019-06-26T15:50:00.693Z,36.95
2019-06-26T15:52:31.520Z,36.80
2019-06-26T15:54:59.333Z,36.68
2019-06-26T15:57:27.732Z,36.50
2019-06-26T15:59:56.481Z,36.49
2019-06-26T16:02:24.918Z,36.46
2019-06-26T16:04:53.595Z,36.28
2019-06-26T16:07:21.998Z,36.39
2019-06-26T16:09:50.400Z,36.58
2019-06-26T16:12:18.795Z,36.63
2019-06-26T16:14:47.623Z,36.80
2019-06-26T16:17:17.644Z,36.68
2019-06-26T16:19:46.329Z,36.79
2019-06-26T16:22:27.784Z,36.74
2019-06-26T16:24:45.180Z,36.58
2019-06-26T16:27:13.580Z,36.55
2019-06-26T16:29:42.639Z,35.84
2019-06-26T16:32:11.215Z,35.90
2019-06-26T16:34:42.079Z,35.83
2019-06-26T16:37:09.763Z,35.74
2019-06-26T16:39:38.177Z,35.73
2019-06-26T16:42:06.606Z,35.88
2019-06-26T16:44:35.345Z,35.69
2019-06-26T16:47:03.747Z,35.33
2019-06-26T16:49:32.144Z,35.41
2019-06-26T16:52:00.910Z,35.40
2019-06-26T16:54:29.571Z,35.14
2019-06-26T16:56:57.977Z,35.10
2019-06-26T16:59:26.380Z,35.02
2019-06-26T17:01:55.140Z,35.09
2019-06-26T17:04:23.562Z,35.07
2019-06-26T17:06:52.010Z,34.98
2019-06-26T17:09:20.402Z,34.67
2019-06-26T17:11:49.166Z,34.66
2019-06-26T17:14:17.863Z,34.86
2019-06-26T17:16:46.255Z,34.82
2019-06-26T17:19:14.650Z,34.70
2019-06-26T17:21:43.074Z,34.47
2019-06-26T17:24:11.480Z,34.35
2019-06-26T17:26:39.893Z,34.27
2019-06-26T17:29:08.639Z,34.35
2019-06-26T17:31:37.325Z,34.28
2019-06-26T17:34:05.726Z,34.13
2019-06-26T17:36:34.145Z,34.01
2019-06-26T17:39:02.705Z,33.82
2019-06-26T17:41:31.094Z,33.63
2019-06-26T17:43:59.514Z,33.46
2019-06-26T17:46:27.964Z,33.36
2019-06-26T17:48:56.702Z,33.20
2019-06-26T17:51:25.225Z,33.05
2019-06-26T17:53:53.611Z,32.90
2019-06-26T17:56:22.345Z,32.79
2019-06-26T17:58:50.753Z,32.68
2019-06-26T18:01:19.535Z,32.46
2019-06-26T18:03:47.935Z,32.24
2019-06-26T18:06:16.336Z,31.93
2019-06-26T18:08:44.731Z,31.65
2019-06-26T18:11:13.159Z,31.47
2019-06-26T18:13:41.548Z,31.21
2019-06-26T18:16:09.952Z,31.00
2019-06-26T18:18:38.682Z,30.75
2019-06-26T18:21:07.488Z,30.55
2019-06-26T18:23:38.439Z,30.38
2019-06-26T18:26:12.920Z,30.19
2019-06-26T18:28:36.138Z,29.97
2019-06-26T18:31:04.618Z,29.64
2019-06-26T18:33:33.012Z,29.35
2019-06-26T18:36:01.402Z,29.12
2019-06-26T18:38:29.824Z,28.91
2019-06-26T18:40:58.269Z,28.74
2019-06-26T18:43:26.726Z,28.56
2019-06-26T18:45:55.123Z,28.32
2019-06-26T18:48:25.033Z,28.18
2019-06-26T18:50:53.581Z,28.07
2019-06-26T18:53:22.023Z,27.93
2019-06-26T18:55:50.835Z,27.76
2019-06-26T18:58:19.365Z,27.62
2019-06-26T19:00:47.985Z,27.45
2019-06-26T19:03:16.464Z,27.32
2019-06-26T19:05:45.065Z,27.13
2019-06-26T19:08:13.483Z,27.01
2019-06-26T19:10:42.264Z,26.84
2019-06-26T19:13:11.037Z,26.76
2019-06-26T19:15:39.862Z,26.60
2019-06-26T19:18:08.595Z,26.50
2019-06-26T19:20:36.998Z,26.32
2019-06-26T19:23:05.660Z,26.21
2019-06-26T19:25:34.374Z,26.08
2019-06-26T19:28:02.863Z,25.89
2019-06-26T19:30:31.530Z,25.77
2019-06-26T19:33:00.205Z,25.66
2019-06-26T19:35:28.597Z,25.51
2019-06-26T19:37:57.041Z,25.35
2019-06-26T19:40:25.465Z,25.22
2019-06-26T19:42:53.871Z,25.09
2019-06-26T19:45:22.833Z,24.99
2019-06-26T19:47:51.297Z,24.85
2019-06-26T19:50:23.341Z,24.73
2019-06-26T19:52:50.312Z,24.62
2019-06-26T19:55:18.965Z,24.57
2019-06-26T19:57:47.797Z,24.47
2019-06-26T20:00:16.621Z,24.39
2019-06-26T20:02:45.660Z,24.33
2019-06-26T20:05:14.073Z,24.24
2019-06-26T20:07:42.498Z,24.15
2019-06-26T20:10:12.757Z,24.05
2019-06-26T20:12:41.227Z,23.97
2019-06-26T20:15:09.968Z,23.90
2019-06-26T20:17:38.716Z,23.87
2019-06-26T20:20:07.879Z,23.79
2019-06-26T20:22:36.354Z,23.76
2019-06-26T20:25:07.806Z,23.74
2019-06-26T20:27:36.410Z,23.66
2019-06-26T20:30:09.539Z,23.60
2019-06-26T20:32:36.584Z,23.49
2019-06-26T20:35:06.850Z,23.44
2019-06-26T20:37:35.336Z,23.35
2019-06-26T20:40:06.000Z,23.27
2019-06-26T20:42:34.430Z,23.17
2019-06-26T20:45:03.222Z,23.09
2019-06-26T20:47:31.611Z,23.07
2019-06-26T20:50:00.017Z,23.02
2019-06-26T20:52:28.714Z,22.97
2019-06-26T20:55:02.176Z,22.96
2019-06-26T20:57:27.535Z,22.92
2019-06-26T20:59:56.044Z,22.84
2019-06-26T21:02:24.509Z,22.82
2019-06-26T21:04:52.926Z,22.77
2019-06-26T21:07:21.600Z,22.71
2019-06-26T21:09:50.012Z,22.64
2019-06-26T21:12:18.739Z,22.60
2019-06-26T21:14:47.244Z,22.53
2019-06-26T21:17:16.152Z,22.43
2019-06-26T21:19:44.761Z,22.39
2019-06-26T21:22:13.186Z,22.33
2019-06-26T21:24:41.586Z,22.28
2019-06-26T21:27:10.334Z,22.18
2019-06-26T21:29:38.840Z,22.12
2019-06-26T21:32:07.243Z,22.07
2019-06-26T21:34:35.645Z,22.00
2019-06-26T21:37:04.708Z,21.95
2019-06-26T21:39:33.323Z,21.94
2019-06-26T21:42:01.717Z,21.86
2019-06-26T21:44:30.471Z,21.81
2019-06-26T21:46:58.911Z,21.75
2019-06-26T21:49:27.431Z,21.68
2019-06-26T21:51:56.285Z,21.61
2019-06-26T21:54:25.075Z,21.55
2019-06-26T21:56:53.467Z,21.46
2019-06-26T21:59:22.154Z,21.42
2019-06-26T22:01:50.918Z,21.38
2019-06-26T22:04:19.970Z,21.30
2019-06-26T22:06:48.728Z,21.27
2019-06-26T22:09:17.446Z,21.25
2019-06-26T22:11:46.128Z,21.16
2019-06-26T22:14:15.023Z,21.10
2019-06-26T22:16:43.432Z,21.05
2019-06-26T22:19:12.049Z,21.04
2019-06-26T22:21:40.599Z,20.95
2019-06-26T22:24:09.407Z,20.94
2019-06-26T22:26:37.888Z,20.93
2019-06-26T22:29:06.353Z,20.90
2019-06-26T22:31:34.933Z,20.87
2019-06-26T22:34:03.341Z,20.81
2019-06-26T22:36:32.204Z,20.77
2019-06-26T22:39:00.609Z,20.73
2019-06-26T22:41:29.391Z,20.70
2019-06-26T22:43:57.785Z,20.65
2019-06-26T22:46:26.368Z,20.63
2019-06-26T22:48:54.770Z,20.55
2019-06-26T22:51:23.211Z,20.45
2019-06-26T22:53:51.609Z,20.36
2019-06-26T22:56:20.052Z,20.33
2019-06-26T22:58:48.438Z,20.30
2019-06-26T23:01:16.870Z,20.23
2019-06-26T23:03:45.254Z,20.20
2019-06-26T23:06:13.862Z,20.12
2019-06-26T23:08:42.598Z,20.09
2019-06-26T23:11:11.011Z,20.05
2019-06-26T23:13:39.419Z,19.98
2019-06-26T23:16:08.142Z,19.92
2019-06-26T23:18:36.545Z,19.87
2019-06-26T23:21:05.242Z,19.83
2019-06-26T23:23:33.657Z,19.77
2019-06-26T23:26:02.066Z,19.70
2019-06-26T23:28:30.469Z,19.68
2019-06-26T23:30:58.893Z,19.65
2019-06-26T23:33:27.617Z,19.62
2019-06-26T23:35:56.023Z,19.59
2019-06-26T23:38:24.439Z,19.53
2019-06-26T23:40:52.844Z,19.46
2019-06-26T23:43:21.803Z,19.43
2019-06-26T23:45:50.477Z,19.38
2019-06-26T23:48:18.884Z,19.38
2019-06-26T23:50:47.287Z,19.37
2019-06-26T23:53:15.701Z,19.29
2019-06-26T23:55:44.095Z,19.28
2019-06-26T23:58:12.866Z,19.27
